Morgenster — PHMY — position and weather

sailwx.info

Track history (hours):
 
Tides and Currents Weather Stations Pressure Air Temp Water Temp Dewpoint Dewpoint Depression Visibility Wind Speed Wind Dir Waves Ship Positions

Morgenster

Last reported at 2015-Nov-18 14:16 UTC. Time now 2016-Feb-14 05:52 UTC.
Position N 28°32' W 015°59'.
Warning: this ship's position is months out of date.

Length 38 m; draft 2.4 m.

Type: Sailing vessel. MMSI: 245136000.

Date/timePositionNaut miles runAvg speedWind from/ knotsBaromVisibWave heightAir tempDewpointWater temp
2015-Nov-18 14:16N 28°32' W 015°59'5 6.8
2015-Nov-18 13:33N 28°35' W 015°54'9 6.6
2015-Nov-18 12:13N 28°39' W 015°45'5 7.0
2015-Nov-18 11:33N 28°41' W 015°41'6 6.5
2015-Nov-18 10:33N 28°45' W 015°35'7 7.1
2015-Nov-18 09:33N 28°50' W 015°28'7 7.1
2015-Nov-18 08:33N 28°54' W 015°22'  
2015-Nov-13 22:32N 37°27' W 010°52'7 7.5
2015-Nov-13 21:32N 37°32' W 010°44'9 7.4
2015-Nov-13 20:18N 37°37' W 010°36'9 8.2
2015-Nov-13 19:10N 37°43' W 010°26'9 8.4
2015-Nov-13 18:04N 37°49' W 010°17'5 8.2
2015-Nov-13 17:31N 37°52' W 010°13'9 8.2
2015-Nov-13 16:28N 37°58' W 010°05'8 8.1
2015-Nov-13 15:31N 38°04' W 009°59'9 8.6
2015-Nov-13 14:31N 38°10' W 009°52'7 7.3
2015-Nov-13 13:32N 38°16' W 009°46'8 8.1
2015-Nov-13 12:33N 38°22' W 009°40'7 7.4
2015-Nov-13 11:33N 38°28' W 009°34'7 6.6
2015-Nov-13 10:33N 38°34' W 009°29'6 5.8
2015-Nov-13 09:33N 38°39' W 009°26'2 2.0
2015-Nov-13 08:31N 38°40' W 009°25'0 0.0
2015-Nov-13 07:25N 38°40' W 009°25'0 0.0
2015-Nov-13 06:31N 38°40' W 009°25'0 0.0
2015-Nov-13 05:31N 38°40' W 009°25'0 0.0
2015-Nov-13 04:31N 38°41' W 009°25'0 0.0
2015-Nov-13 03:31N 38°41' W 009°25'0 0.0
2015-Nov-13 02:31N 38°41' W 009°25'0 0.0
2015-Nov-13 01:31N 38°40' W 009°25'0 0.0
2015-Nov-13 00:31N 38°40' W 009°25'0 0.0
2015-Nov-12 23:31N 38°40' W 009°25'0 0.0
2015-Nov-12 22:31N 38°41' W 009°25'0 0.0
2015-Nov-12 21:31N 38°40' W 009°25'0 0.0
2015-Nov-12 20:31N 38°40' W 009°25'0 0.0
2015-Nov-12 19:28N 38°40' W 009°25'0 0.0
2015-Nov-12 18:31N 38°40' W 009°25'0 0.0
2015-Nov-12 17:28N 38°41' W 009°25'0 0.0
2015-Nov-12 16:27N 38°41' W 009°25'0 0.0
2015-Nov-12 15:33N 38°41' W 009°25'0 0.0
2015-Nov-12 14:33N 38°41' W 009°25'0 0.0
2015-Nov-12 13:30N 38°41' W 009°25'0 0.0
2015-Nov-12 12:33N 38°41' W 009°25'0 0.0
2015-Nov-12 11:31N 38°41' W 009°25'0 0.0
2015-Nov-12 10:33N 38°41' W 009°25'0 0.0
2015-Nov-12 09:31N 38°41' W 009°25'1 0.9
2015-Nov-12 08:31N 38°41' W 009°24'1 1.5
2015-Nov-12 07:33N 38°40' W 009°26'5 5.2
2015-Nov-12 06:33N 38°43' W 009°32'6 6.2
2015-Nov-12 05:33N 38°49' W 009°34'6 6.1
2015-Nov-12 04:33N 38°54' W 009°37'6 5.7
2015-Nov-12 03:33N 38°60' W 009°38'4 4.3
2015-Nov-12 02:33N 39°04' W 009°39'4 4.4
2015-Nov-12 01:33N 39°09' W 009°39'5 5.5
2015-Nov-12 00:33N 39°14' W 009°39'6 5.6
2015-Nov-11 23:33N 39°20' W 009°38'6 5.7
2015-Nov-11 22:33N 39°25' W 009°37'8 6.6
2015-Nov-11 21:24N 39°33' W 009°36'5 5.4
2015-Nov-11 20:33N 39°38' W 009°36'5 5.0
2015-Nov-11 19:33N 39°42' W 009°35'6 5.4
2015-Nov-11 18:30N 39°48' W 009°35'6 6.3
2015-Nov-11 17:31N 39°54' W 009°35'6 6.0
2015-Nov-11 16:31N 40°00' W 009°37'5 4.7
2015-Nov-11 15:28N 40°05' W 009°37'3 3.5
2015-Nov-11 14:31N 40°08' W 009°37'3 2.9
2015-Nov-11 13:28N 40°11' W 009°36'2 2.5
2015-Nov-11 12:31N 40°14' W 009°35'2 2.5
2015-Nov-11 11:33N 40°16' W 009°34'4 3.3
2015-Nov-11 10:28N 40°20' W 009°33'3 3.4
2015-Nov-11 09:30N 40°23' W 009°32'4 4.3
2015-Nov-11 08:31N 40°27' W 009°31'3 3.5
2015-Nov-11 07:33N 40°30' W 009°31'4 3.9
2015-Nov-11 06:33N 40°34' W 009°31'6 5.8
2015-Nov-11 05:30N 40°40' W 009°31'7 6.7
2015-Nov-11 04:31N 40°47' W 009°32'7 6.9
2015-Nov-11 03:31N 40°54' W 009°33'6 5.8
2015-Nov-11 02:31N 40°60' W 009°35'6 5.7
2015-Nov-11 01:32N 41°05' W 009°36'7 6.2
2015-Nov-11 00:28N 41°12' W 009°37'6 6.1
2015-Nov-10 23:31N 41°17' W 009°38'7 7.0
2015-Nov-10 22:28N 41°25' W 009°40'8 8.3
2015-Nov-10 21:31N 41°32' W 009°43'9 9.0
2015-Nov-10 20:31N 41°40' W 009°48'8 8.9
2015-Nov-10 19:34N 41°48' W 009°52'10 8.9
2015-Nov-10 18:25N 41°58' W 009°53'  
Track history (hours):
 
Tides and Currents Weather Stations Pressure Air Temp Water Temp Dewpoint Dewpoint Depression Visibility Wind Speed Wind Dir Waves Ship Positions

Morgenster

Last reported at 2015-Nov-18 14:16 UTC. Time now 2016-Feb-14 05:52 UTC.
Position N 28°32' W 015°59'.
Warning: this ship's position is months out of date.

Length 38 m; draft 2.4 m.

Type: Sailing vessel. MMSI: 245136000.

Date/timePositionNaut miles runAvg speedWind from/ knotsBaromVisibWave heightAir tempDewpointWater temp
2015-Nov-18 14:16N 28°32' W 015°59'5 6.8
2015-Nov-18 13:33N 28°35' W 015°54'9 6.6
2015-Nov-18 12:13N 28°39' W 015°45'5 7.0
2015-Nov-18 11:33N 28°41' W 015°41'6 6.5
2015-Nov-18 10:33N 28°45' W 015°35'7 7.1
2015-Nov-18 09:33N 28°50' W 015°28'7 7.1
2015-Nov-18 08:33N 28°54' W 015°22'  
2015-Nov-13 22:32N 37°27' W 010°52'7 7.5
2015-Nov-13 21:32N 37°32' W 010°44'9 7.4
2015-Nov-13 20:18N 37°37' W 010°36'9 8.2
2015-Nov-13 19:10N 37°43' W 010°26'9 8.4
2015-Nov-13 18:04N 37°49' W 010°17'5 8.2
2015-Nov-13 17:31N 37°52' W 010°13'9 8.2
2015-Nov-13 16:28N 37°58' W 010°05'8 8.1
2015-Nov-13 15:31N 38°04' W 009°59'9 8.6
2015-Nov-13 14:31N 38°10' W 009°52'7 7.3
2015-Nov-13 13:32N 38°16' W 009°46'8 8.1
2015-Nov-13 12:33N 38°22' W 009°40'7 7.4
2015-Nov-13 11:33N 38°28' W 009°34'7 6.6
2015-Nov-13 10:33N 38°34' W 009°29'6 5.8
2015-Nov-13 09:33N 38°39' W 009°26'2 2.0
2015-Nov-13 08:31N 38°40' W 009°25'0 0.0
2015-Nov-13 07:25N 38°40' W 009°25'0 0.0
2015-Nov-13 06:31N 38°40' W 009°25'0 0.0
2015-Nov-13 05:31N 38°40' W 009°25'0 0.0
2015-Nov-13 04:31N 38°41' W 009°25'0 0.0
2015-Nov-13 03:31N 38°41' W 009°25'0 0.0
2015-Nov-13 02:31N 38°41' W 009°25'0 0.0
2015-Nov-13 01:31N 38°40' W 009°25'0 0.0
2015-Nov-13 00:31N 38°40' W 009°25'0 0.0
2015-Nov-12 23:31N 38°40' W 009°25'0 0.0
2015-Nov-12 22:31N 38°41' W 009°25'0 0.0
2015-Nov-12 21:31N 38°40' W 009°25'0 0.0
2015-Nov-12 20:31N 38°40' W 009°25'0 0.0
2015-Nov-12 19:28N 38°40' W 009°25'0 0.0
2015-Nov-12 18:31N 38°40' W 009°25'0 0.0
2015-Nov-12 17:28N 38°41' W 009°25'0 0.0
2015-Nov-12 16:27N 38°41' W 009°25'0 0.0
2015-Nov-12 15:33N 38°41' W 009°25'0 0.0
2015-Nov-12 14:33N 38°41' W 009°25'0 0.0
2015-Nov-12 13:30N 38°41' W 009°25'0 0.0
2015-Nov-12 12:33N 38°41' W 009°25'0 0.0
2015-Nov-12 11:31N 38°41' W 009°25'0 0.0
2015-Nov-12 10:33N 38°41' W 009°25'0 0.0
2015-Nov-12 09:31N 38°41' W 009°25'1 0.9
2015-Nov-12 08:31N 38°41' W 009°24'1 1.5
2015-Nov-12 07:33N 38°40' W 009°26'5 5.2
2015-Nov-12 06:33N 38°43' W 009°32'6 6.2
2015-Nov-12 05:33N 38°49' W 009°34'6 6.1
2015-Nov-12 04:33N 38°54' W 009°37'6 5.7
2015-Nov-12 03:33N 38°60' W 009°38'4 4.3
2015-Nov-12 02:33N 39°04' W 009°39'4 4.4
2015-Nov-12 01:33N 39°09' W 009°39'5 5.5
2015-Nov-12 00:33N 39°14' W 009°39'6 5.6
2015-Nov-11 23:33N 39°20' W 009°38'6 5.7
2015-Nov-11 22:33N 39°25' W 009°37'8 6.6
2015-Nov-11 21:24N 39°33' W 009°36'5 5.4
2015-Nov-11 20:33N 39°38' W 009°36'5 5.0
2015-Nov-11 19:33N 39°42' W 009°35'6 5.4
2015-Nov-11 18:30N 39°48' W 009°35'6 6.3
2015-Nov-11 17:31N 39°54' W 009°35'6 6.0
2015-Nov-11 16:31N 40°00' W 009°37'5 4.7
2015-Nov-11 15:28N 40°05' W 009°37'3 3.5
2015-Nov-11 14:31N 40°08' W 009°37'3 2.9
2015-Nov-11 13:28N 40°11' W 009°36'2 2.5
2015-Nov-11 12:31N 40°14' W 009°35'2 2.5
2015-Nov-11 11:33N 40°16' W 009°34'4 3.3
2015-Nov-11 10:28N 40°20' W 009°33'3 3.4
2015-Nov-11 09:30N 40°23' W 009°32'4 4.3
2015-Nov-11 08:31N 40°27' W 009°31'3 3.5
2015-Nov-11 07:33N 40°30' W 009°31'4 3.9
2015-Nov-11 06:33N 40°34' W 009°31'6 5.8
2015-Nov-11 05:30N 40°40' W 009°31'7 6.7
2015-Nov-11 04:31N 40°47' W 009°32'7 6.9
2015-Nov-11 03:31N 40°54' W 009°33'6 5.8
2015-Nov-11 02:31N 40°60' W 009°35'6 5.7
2015-Nov-11 01:32N 41°05' W 009°36'7 6.2
2015-Nov-11 00:28N 41°12' W 009°37'6 6.1
2015-Nov-10 23:31N 41°17' W 009°38'7 7.0
2015-Nov-10 22:28N 41°25' W 009°40'8 8.3
2015-Nov-10 21:31N 41°32' W 009°43'9 9.0
2015-Nov-10 20:31N 41°40' W 009°48'8 8.9
2015-Nov-10 19:34N 41°48' W 009°52'10 8.9
2015-Nov-10 18:25N 41°58' W 009°53'  

Dump ship's entire track history